createdAt,value
2017-12-10T00:00:46.298Z,99.00
2017-12-10T00:03:13.794Z,99.90
2017-12-10T00:05:41.279Z,99.40
2017-12-10T00:08:09.498Z,99.90
2017-12-10T00:10:36.983Z,99.90
2017-12-10T00:13:04.553Z,99.80
2017-12-10T00:15:32.106Z,99.70
2017-12-10T00:17:59.608Z,99.90
2017-12-10T00:20:27.077Z,99.90
2017-12-10T00:22:54.576Z,99.90
2017-12-10T00:25:22.030Z,99.90
2017-12-10T00:27:49.653Z,99.90
2017-12-10T00:30:17.151Z,99.90
2017-12-10T00:32:44.729Z,99.90
2017-12-10T00:35:12.203Z,99.90
2017-12-10T00:37:39.721Z,99.90
2017-12-10T00:40:07.199Z,99.90
2017-12-10T00:42:35.446Z,99.90
2017-12-10T00:45:02.902Z,99.90
2017-12-10T00:47:30.394Z,99.90
2017-12-10T00:49:58.614Z,99.90
2017-12-10T00:52:26.081Z,99.90
2017-12-10T00:54:53.651Z,99.90
2017-12-10T00:57:21.199Z,99.90
2017-12-10T00:59:48.659Z,99.90
2017-12-10T01:02:16.131Z,99.90
2017-12-10T01:04:43.587Z,99.90
2017-12-10T01:07:11.959Z,99.90
2017-12-10T01:09:39.415Z,99.90
2017-12-10T01:12:06.867Z,99.90
2017-12-10T01:14:34.355Z,99.90
2017-12-10T01:17:02.240Z,99.90
2017-12-10T01:19:29.741Z,99.90
2017-12-10T01:21:57.295Z,99.90
2017-12-10T01:24:24.856Z,99.90
2017-12-10T01:26:52.439Z,99.90
2017-12-10T01:29:20.655Z,99.90
2017-12-10T01:31:48.183Z,99.90
2017-12-10T01:34:15.631Z,99.90
2017-12-10T01:36:43.161Z,99.90
2017-12-10T01:39:12.122Z,99.90
2017-12-10T01:41:39.710Z,99.90
2017-12-10T01:44:07.268Z,99.90
2017-12-10T01:46:34.822Z,99.90
2017-12-10T01:49:02.379Z,99.90
2017-12-10T01:51:29.834Z,99.90
2017-12-10T01:53:57.392Z,99.90
2017-12-10T01:56:24.863Z,99.90
2017-12-10T01:58:53.087Z,99.90
2017-12-10T02:01:20.559Z,99.90
2017-12-10T02:03:48.037Z,99.90
2017-12-10T02:06:15.493Z,99.90
2017-12-10T02:08:44.591Z,99.90
2017-12-10T02:11:12.047Z,99.90
2017-12-10T02:13:39.502Z,99.90
2017-12-10T02:16:07.759Z,99.90
2017-12-10T02:18:35.322Z,99.90
2017-12-10T02:21:02.777Z,99.90
2017-12-10T02:23:30.335Z,99.90
2017-12-10T02:25:57.790Z,99.90
2017-12-10T02:28:25.258Z,99.90
2017-12-10T02:30:53.525Z,99.90
2017-12-10T02:33:20.991Z,99.90
2017-12-10T02:35:49.228Z,99.90
2017-12-10T02:38:16.694Z,99.90
2017-12-10T02:40:44.223Z,99.90
2017-12-10T02:43:11.740Z,99.90
2017-12-10T02:45:39.138Z,99.90
2017-12-10T02:48:06.599Z,99.90
2017-12-10T02:50:34.186Z,99.90
2017-12-10T02:53:01.648Z,99.90
2017-12-10T02:55:33.713Z,99.90
2017-12-10T02:58:01.268Z,99.90
2017-12-10T03:00:28.727Z,99.90
2017-12-10T03:02:56.195Z,99.90
2017-12-10T03:05:24.419Z,99.60
2017-12-10T03:07:51.907Z,99.60
2017-12-10T03:10:19.375Z,99.70
2017-12-10T03:12:47.604Z,99.80
2017-12-10T03:15:15.261Z,99.70
2017-12-10T03:17:42.812Z,99.70
2017-12-10T03:20:10.259Z,99.50
2017-12-10T03:22:38.322Z,99.40
2017-12-10T03:25:05.846Z,99.40
2017-12-10T03:27:34.113Z,99.00
2017-12-10T03:30:01.563Z,99.00
2017-12-10T03:32:29.126Z,99.40
2017-12-10T03:34:56.585Z,99.10
2017-12-10T03:37:24.175Z,98.70
2017-12-10T03:39:52.410Z,98.30
2017-12-10T03:42:19.963Z,98.20
2017-12-10T03:44:47.435Z,98.30
2017-12-10T03:47:14.891Z,98.70
2017-12-10T03:49:42.439Z,98.40
2017-12-10T03:52:09.891Z,98.40
2017-12-10T03:54:37.386Z,98.70
2017-12-10T03:57:04.909Z,98.90
2017-12-10T03:59:32.368Z,98.90
2017-12-10T04:01:59.831Z,98.80
2017-12-10T04:04:28.090Z,99.10
2017-12-10T04:06:55.546Z,99.00
2017-12-10T04:09:23.098Z,99.60
2017-12-10T04:11:50.550Z,99.50
2017-12-10T04:14:18.015Z,99.40
2017-12-10T04:16:45.576Z,99.70
2017-12-10T04:19:13.048Z,99.50
2017-12-10T04:21:41.271Z,99.90
2017-12-10T04:24:08.854Z,99.80
2017-12-10T04:26:36.335Z,99.90
2017-12-10T04:29:03.875Z,99.90
2017-12-10T04:31:31.376Z,99.90
2017-12-10T04:33:58.889Z,99.90
2017-12-10T04:36:26.372Z,99.90
2017-12-10T04:38:54.587Z,99.90
2017-12-10T04:41:22.038Z,99.90
2017-12-10T04:43:49.591Z,99.90
2017-12-10T04:46:17.087Z,99.90
2017-12-10T04:48:44.638Z,99.90
2017-12-10T04:51:12.104Z,99.90
2017-12-10T04:53:39.660Z,99.90
2017-12-10T04:56:07.220Z,99.90
2017-12-10T04:58:34.683Z,99.90
2017-12-10T05:01:02.193Z,99.90
2017-12-10T05:03:29.643Z,99.90
2017-12-10T05:05:57.138Z,99.90
2017-12-10T05:08:24.702Z,99.90
2017-12-10T05:10:52.160Z,99.90
2017-12-10T05:13:19.613Z,99.90
2017-12-10T05:15:47.090Z,99.90
2017-12-10T05:18:15.341Z,99.90
2017-12-10T05:20:42.797Z,99.90
2017-12-10T05:23:10.263Z,99.90
2017-12-10T05:25:37.722Z,99.90
2017-12-10T05:28:05.983Z,99.90
2017-12-10T05:30:33.444Z,99.90
2017-12-10T05:33:00.905Z,99.90
2017-12-10T05:35:28.372Z,99.90
2017-12-10T05:37:56.590Z,99.90
2017-12-10T05:40:24.181Z,99.90
2017-12-10T05:42:51.640Z,99.90
2017-12-10T05:45:19.190Z,99.90
2017-12-10T05:47:46.663Z,99.90
2017-12-10T05:50:14.115Z,99.90
2017-12-10T05:52:41.573Z,99.60
2017-12-10T05:55:09.830Z,99.40
2017-12-10T05:57:37.298Z,99.60
2017-12-10T06:00:04.756Z,99.30
2017-12-10T06:02:32.212Z,99.70
2017-12-10T06:04:59.679Z,98.60
2017-12-10T06:07:27.989Z,98.70
2017-12-10T06:09:55.434Z,98.70
2017-12-10T06:12:22.903Z,98.30
2017-12-10T06:14:50.400Z,98.70
2017-12-10T06:17:19.373Z,98.60
2017-12-10T06:19:46.862Z,98.60
2017-12-10T06:22:15.079Z,98.60
2017-12-10T06:24:42.531Z,98.50
2017-12-10T06:27:10.007Z,98.50
2017-12-10T06:29:37.467Z,98.50
2017-12-10T06:32:05.063Z,98.50
2017-12-10T06:34:32.557Z,98.30
2017-12-10T06:37:00.003Z,98.20
2017-12-10T06:39:27.510Z,98.40
2017-12-10T06:41:54.964Z,98.80
2017-12-10T06:44:22.411Z,99.00
2017-12-10T06:46:49.881Z,98.70
2017-12-10T06:49:17.436Z,99.10
2017-12-10T06:51:44.990Z,98.70
2017-12-10T06:54:13.947Z,98.80
2017-12-10T06:56:41.400Z,99.10
2017-12-10T06:59:08.862Z,99.00
2017-12-10T07:01:36.350Z,99.20
2017-12-10T07:04:03.921Z,99.10
2017-12-10T07:06:31.379Z,99.00
2017-12-10T07:08:59.645Z,99.60
2017-12-10T07:11:27.207Z,99.50
2017-12-10T07:13:54.679Z,99.30
2017-12-10T07:16:22.910Z,99.00
2017-12-10T07:18:50.367Z,98.90
2017-12-10T07:21:18.817Z,98.90
2017-12-10T07:23:46.287Z,98.50
2017-12-10T07:26:13.735Z,98.60
2017-12-10T07:28:41.227Z,97.80
2017-12-10T07:31:08.684Z,97.50
2017-12-10T07:33:37.666Z,97.00
2017-12-10T07:36:05.146Z,97.00
2017-12-10T07:38:33.370Z,96.40
2017-12-10T07:41:00.863Z,96.40
2017-12-10T07:43:28.420Z,96.40
2017-12-10T07:45:55.975Z,96.80
2017-12-10T07:48:23.535Z,96.40
2017-12-10T07:50:50.987Z,96.40
2017-12-10T07:53:18.442Z,96.50
2017-12-10T07:55:45.914Z,96.10
2017-12-10T07:58:14.234Z,94.80
2017-12-10T08:00:41.731Z,94.50
2017-12-10T08:03:09.187Z,91.70
2017-12-10T08:05:36.642Z,91.10
2017-12-10T08:08:04.110Z,91.60
2017-12-10T08:10:31.578Z,92.50
2017-12-10T08:12:59.937Z,92.80
2017-12-10T08:15:27.499Z,92.50
2017-12-10T08:17:55.055Z,92.40
2017-12-10T08:20:22.539Z,91.80
2017-12-10T08:22:49.990Z,92.00
2017-12-10T08:25:18.211Z,90.60
2017-12-10T08:27:45.704Z,90.50
2017-12-10T08:30:13.156Z,90.90
2017-12-10T08:32:40.703Z,91.30
2017-12-10T08:35:09.801Z,90.30
2017-12-10T08:37:37.267Z,90.30
2017-12-10T08:40:05.528Z,88.20
2017-12-10T08:42:33.760Z,86.70
2017-12-10T08:45:01.249Z,86.70
2017-12-10T08:47:28.810Z,85.10
2017-12-10T08:49:56.279Z,83.40
2017-12-10T08:52:23.835Z,83.80
2017-12-10T08:54:51.303Z,82.40
2017-12-10T08:57:19.558Z,82.50
2017-12-10T08:59:47.017Z,82.40
2017-12-10T09:02:14.483Z,82.80
2017-12-10T09:04:42.715Z,84.10
2017-12-10T09:07:10.184Z,83.50
2017-12-10T09:09:37.764Z,82.80
2017-12-10T09:12:06.027Z,82.70
2017-12-10T09:14:33.544Z,82.60
2017-12-10T09:17:00.999Z,85.00
2017-12-10T09:19:28.460Z,87.00
2017-12-10T09:21:55.932Z,88.50
2017-12-10T09:24:23.527Z,89.10
2017-12-10T09:26:52.486Z,90.00
2017-12-10T09:29:19.951Z,90.00
2017-12-10T09:31:47.523Z,90.40
2017-12-10T09:34:14.994Z,90.50
2017-12-10T09:36:43.243Z,90.20
2017-12-10T09:39:10.716Z,90.20
2017-12-10T09:41:38.299Z,90.20
2017-12-10T09:44:05.816Z,88.30
2017-12-10T09:46:33.311Z,87.20
2017-12-10T09:49:00.766Z,88.10
2017-12-10T09:51:28.232Z,88.30
2017-12-10T09:53:55.707Z,89.40
2017-12-10T09:56:23.159Z,89.50
2017-12-10T09:58:50.610Z,89.50
2017-12-10T10:01:18.083Z,88.20
2017-12-10T10:03:45.569Z,85.80
2017-12-10T10:06:13.016Z,85.40
2017-12-10T10:08:40.491Z,85.70
2017-12-10T10:11:08.722Z,84.00
2017-12-10T10:13:36.189Z,83.90
2017-12-10T10:16:03.638Z,85.30
2017-12-10T10:18:31.102Z,86.20
2017-12-10T10:20:58.674Z,88.00
2017-12-10T10:23:26.137Z,88.70
2017-12-10T10:25:54.367Z,87.40
2017-12-10T10:28:21.827Z,87.00
2017-12-10T10:30:49.306Z,74.90
2017-12-10T10:33:16.870Z,76.30
2017-12-10T10:35:44.427Z,80.30
2017-12-10T10:38:11.886Z,82.70
2017-12-10T10:40:39.345Z,83.60
2017-12-10T10:43:06.826Z,85.00
2017-12-10T10:45:35.042Z,86.00
2017-12-10T10:48:02.510Z,86.00
2017-12-10T10:50:30.078Z,86.30
2017-12-10T10:52:57.598Z,85.20
2017-12-10T10:55:25.048Z,84.60
2017-12-10T10:57:52.531Z,83.30
2017-12-10T11:00:20.013Z,82.70
2017-12-10T11:02:47.464Z,82.20
2017-12-10T11:05:15.023Z,85.50
2017-12-10T11:07:42.490Z,82.90
2017-12-10T11:10:10.031Z,85.60
2017-12-10T11:12:37.651Z,83.70
2017-12-10T11:15:05.163Z,84.20
2017-12-10T11:17:33.483Z,85.40
2017-12-10T11:20:00.945Z,84.90
2017-12-10T11:22:28.411Z,85.00
2017-12-10T11:24:55.875Z,84.80
2017-12-10T11:27:23.326Z,85.50
2017-12-10T11:29:50.810Z,85.80
2017-12-10T11:32:18.375Z,92.30
2017-12-10T11:34:45.876Z,87.30
2017-12-10T11:37:13.330Z,86.50
2017-12-10T11:39:40.791Z,86.80
2017-12-10T11:42:08.371Z,87.00
2017-12-10T11:44:35.903Z,87.50
2017-12-10T11:47:03.370Z,88.90
2017-12-10T11:49:30.838Z,89.70
2017-12-10T11:51:58.295Z,90.30
2017-12-10T11:54:25.872Z,91.10
2017-12-10T11:56:53.345Z,92.30
2017-12-10T11:59:21.605Z,96.20
2017-12-10T12:01:49.220Z,96.10
2017-12-10T12:04:16.675Z,97.80
2017-12-10T12:06:44.235Z,98.60
2017-12-10T12:09:11.823Z,99.90
2017-12-10T12:11:40.051Z,99.90
2017-12-10T12:14:07.503Z,99.90
2017-12-10T12:16:34.978Z,99.90
2017-12-10T12:19:02.530Z,99.90
2017-12-10T12:21:29.962Z,99.90
2017-12-10T12:23:57.414Z,99.90
2017-12-10T12:26:24.940Z,99.90
2017-12-10T12:28:52.478Z,99.90
2017-12-10T12:31:19.931Z,99.90
2017-12-10T12:33:47.715Z,99.90
2017-12-10T12:36:15.942Z,99.90
2017-12-10T12:38:43.403Z,99.90
2017-12-10T12:41:11.003Z,99.90
2017-12-10T12:43:38.467Z,99.90
2017-12-10T12:46:05.923Z,99.90
2017-12-10T12:48:33.429Z,99.90
2017-12-10T12:51:00.987Z,99.90
2017-12-10T12:53:28.447Z,99.90
2017-12-10T12:55:55.902Z,99.90
2017-12-10T12:58:23.392Z,99.90
2017-12-10T13:00:50.851Z,99.90
2017-12-10T13:03:18.439Z,99.90
2017-12-10T13:05:46.695Z,99.90
2017-12-10T13:08:14.155Z,99.90
2017-12-10T13:10:42.474Z,99.90
2017-12-10T13:13:10.038Z,99.90
2017-12-10T13:15:37.589Z,99.90
2017-12-10T13:18:05.094Z,99.90
2017-12-10T13:20:32.639Z,99.90
2017-12-10T13:23:00.203Z,99.90
2017-12-10T13:25:27.656Z,99.90
2017-12-10T13:27:55.213Z,99.90
2017-12-10T13:30:22.698Z,99.90
2017-12-10T13:32:50.955Z,99.90
2017-12-10T13:35:18.518Z,99.90
2017-12-10T13:37:45.999Z,99.90
2017-12-10T13:40:14.240Z,99.90
2017-12-10T13:42:41.696Z,99.90
2017-12-10T13:45:09.205Z,99.90
2017-12-10T13:47:36.694Z,99.90
2017-12-10T13:50:04.172Z,99.90
2017-12-10T13:52:31.715Z,99.90
2017-12-10T13:54:59.231Z,99.90
2017-12-10T13:57:26.727Z,99.90
2017-12-10T13:59:54.245Z,99.90
2017-12-10T14:02:21.703Z,99.90
2017-12-10T14:04:49.183Z,99.90
2017-12-10T14:07:16.667Z,99.90
2017-12-10T14:09:44.168Z,99.90
2017-12-10T14:12:11.669Z,99.90
2017-12-10T14:14:39.131Z,99.90
2017-12-10T14:17:07.363Z,99.90
2017-12-10T14:19:34.871Z,99.90
2017-12-10T14:22:03.099Z,99.90
2017-12-10T14:24:30.571Z,99.90
2017-12-10T14:26:58.030Z,99.90
2017-12-10T14:29:25.597Z,99.90
2017-12-10T14:31:53.146Z,99.90
2017-12-10T14:34:20.603Z,99.90
2017-12-10T14:36:48.086Z,99.90
2017-12-10T14:39:16.307Z,99.90
2017-12-10T14:41:43.764Z,99.90
2017-12-10T14:44:11.252Z,99.90
2017-12-10T14:46:38.809Z,99.90
2017-12-10T14:49:06.367Z,99.90
2017-12-10T14:51:33.833Z,99.90
2017-12-10T14:54:02.104Z,99.90
2017-12-10T14:56:29.575Z,99.90
2017-12-10T14:58:57.835Z,99.90
2017-12-10T15:01:26.071Z,99.90
2017-12-10T15:03:53.556Z,99.90
2017-12-10T15:06:21.039Z,99.90
2017-12-10T15:08:49.451Z,99.90
2017-12-10T15:11:17.005Z,99.90
2017-12-10T15:13:44.505Z,99.90
2017-12-10T15:16:12.120Z,99.90
2017-12-10T15:18:39.579Z,99.90
2017-12-10T15:21:07.077Z,99.90
2017-12-10T15:23:34.527Z,99.90
2017-12-10T15:26:02.023Z,99.90
2017-12-10T15:28:29.550Z,99.90
2017-12-10T15:30:57.018Z,99.90
2017-12-10T15:33:25.270Z,99.90
2017-12-10T15:35:52.732Z,99.90
2017-12-10T15:38:20.288Z,99.90
2017-12-10T15:40:47.755Z,99.90
2017-12-10T15:43:16.075Z,99.90
2017-12-10T15:45:43.581Z,99.90
2017-12-10T15:48:11.795Z,99.90
2017-12-10T15:50:39.303Z,99.90
2017-12-10T15:53:06.787Z,99.90
2017-12-10T15:55:35.030Z,99.90
2017-12-10T15:58:02.603Z,99.90
2017-12-10T16:00:30.839Z,99.90
2017-12-10T16:02:59.174Z,99.90
2017-12-10T16:05:26.655Z,99.90
2017-12-10T16:07:54.105Z,99.90
2017-12-10T16:10:21.712Z,99.90
2017-12-10T16:12:49.370Z,99.90
2017-12-10T16:15:16.828Z,99.90
2017-12-10T16:17:44.291Z,99.90
2017-12-10T16:20:13.519Z,99.90
2017-12-10T16:22:41.035Z,99.90
2017-12-10T16:25:08.492Z,99.90
2017-12-10T16:27:35.954Z,99.90
2017-12-10T16:30:03.502Z,99.90
2017-12-10T16:32:30.946Z,99.90
2017-12-10T16:34:58.427Z,99.90
2017-12-10T16:37:26.654Z,99.90
2017-12-10T16:39:54.170Z,99.90
2017-12-10T16:42:21.707Z,99.90
2017-12-10T16:44:49.162Z,99.90
2017-12-10T16:47:16.614Z,99.90
2017-12-10T16:49:44.071Z,99.90
2017-12-10T16:52:11.523Z,99.90
2017-12-10T16:54:39.083Z,99.90
2017-12-10T16:57:08.075Z,99.90
2017-12-10T16:59:35.525Z,99.90
2017-12-10T17:02:02.991Z,99.90
2017-12-10T17:04:30.443Z,99.90
2017-12-10T17:06:57.974Z,99.90
2017-12-10T17:09:26.150Z,99.90
2017-12-10T17:11:53.629Z,99.90
2017-12-10T17:14:21.085Z,99.90
2017-12-10T17:16:49.312Z,99.90
2017-12-10T17:19:16.759Z,99.90
2017-12-10T17:21:44.239Z,99.90
2017-12-10T17:24:11.722Z,99.90
2017-12-10T17:26:39.174Z,99.90
2017-12-10T17:29:06.636Z,99.90
2017-12-10T17:31:34.150Z,99.90
2017-12-10T17:34:01.654Z,99.90
2017-12-10T17:36:29.924Z,99.90
2017-12-10T17:38:58.923Z,99.90
2017-12-10T17:41:26.376Z,99.90
2017-12-10T17:43:54.607Z,99.90
2017-12-10T17:46:22.059Z,99.90
2017-12-10T17:48:49.522Z,99.90
2017-12-10T17:51:16.967Z,99.90
2017-12-10T17:53:44.423Z,99.90
2017-12-10T17:56:11.936Z,99.90
2017-12-10T17:58:39.374Z,99.90
2017-12-10T18:01:08.327Z,99.90
2017-12-10T18:03:35.825Z,99.90
2017-12-10T18:06:03.272Z,99.90
2017-12-10T18:08:30.719Z,99.90
2017-12-10T18:10:58.351Z,99.90
2017-12-10T18:13:25.788Z,99.90
2017-12-10T18:15:53.262Z,99.90
2017-12-10T18:18:20.712Z,99.90
2017-12-10T18:20:48.167Z,99.90
2017-12-10T18:23:15.630Z,99.90
2017-12-10T18:25:44.005Z,99.90
2017-12-10T18:28:11.478Z,99.90
2017-12-10T18:30:39.019Z,99.90
2017-12-10T18:33:06.487Z,99.90
2017-12-10T18:35:33.972Z,99.90
2017-12-10T18:38:01.487Z,99.90
2017-12-10T18:40:28.988Z,99.90
2017-12-10T18:42:57.198Z,99.90
2017-12-10T18:45:24.651Z,99.90
2017-12-10T18:47:52.898Z,99.90
2017-12-10T18:50:20.343Z,99.90
2017-12-10T18:52:48.633Z,99.90
2017-12-10T18:55:16.856Z,99.90
2017-12-10T18:57:44.407Z,99.90
2017-12-10T19:00:11.902Z,99.90
2017-12-10T19:02:40.122Z,99.90
2017-12-10T19:05:07.621Z,99.90
2017-12-10T19:07:35.059Z,99.90
2017-12-10T19:10:02.549Z,99.90
2017-12-10T19:12:31.514Z,99.90
2017-12-10T19:14:58.963Z,99.90
2017-12-10T19:17:26.459Z,99.90
2017-12-10T19:19:53.927Z,99.90
2017-12-10T19:22:22.134Z,99.90
2017-12-10T19:24:49.583Z,99.90
2017-12-10T19:27:17.097Z,99.90
2017-12-10T19:29:46.043Z,99.90
2017-12-10T19:32:13.495Z,99.90
2017-12-10T19:34:40.955Z,99.90
2017-12-10T19:37:08.411Z,99.90
2017-12-10T19:39:35.870Z,99.90
2017-12-10T19:42:03.345Z,99.90
2017-12-10T19:44:30.778Z,99.90
2017-12-10T19:46:58.370Z,99.90
2017-12-10T19:49:25.819Z,99.90
2017-12-10T19:51:53.284Z,99.90
2017-12-10T19:54:22.256Z,99.90
2017-12-10T19:56:49.744Z,99.90
2017-12-10T19:59:17.337Z,99.90
2017-12-10T20:01:44.850Z,99.90
2017-12-10T20:04:12.415Z,99.90
2017-12-10T20:06:39.895Z,99.90
2017-12-10T20:09:08.106Z,99.90
2017-12-10T20:11:35.575Z,99.90
2017-12-10T20:14:03.026Z,99.90
2017-12-10T20:16:30.471Z,99.90
2017-12-10T20:18:58.073Z,99.90
2017-12-10T20:21:25.515Z,99.90
2017-12-10T20:23:53.767Z,99.90
2017-12-10T20:26:21.400Z,99.90
2017-12-10T20:28:48.810Z,99.90
2017-12-10T20:31:16.279Z,99.90
2017-12-10T20:33:44.495Z,99.90
2017-12-10T20:36:11.948Z,99.90
2017-12-10T20:38:39.427Z,99.90
2017-12-10T20:41:06.883Z,99.90
2017-12-10T20:43:34.335Z,99.90
2017-12-10T20:46:01.799Z,99.90
2017-12-10T20:48:29.264Z,99.90
2017-12-10T20:50:57.531Z,99.90
2017-12-10T20:53:24.997Z,99.90
2017-12-10T20:55:53.284Z,99.90
2017-12-10T20:58:20.767Z,99.90
2017-12-10T21:00:48.279Z,99.90
2017-12-10T21:03:16.494Z,99.90
2017-12-10T21:05:44.012Z,99.90
2017-12-10T21:08:12.226Z,99.90
2017-12-10T21:10:39.755Z,99.90
2017-12-10T21:13:07.207Z,99.90
2017-12-10T21:15:34.659Z,99.90
2017-12-10T21:18:02.214Z,99.90
2017-12-10T21:20:31.195Z,99.90
2017-12-10T21:22:58.761Z,99.90
2017-12-10T21:25:26.217Z,99.90
2017-12-10T21:27:55.198Z,99.90
2017-12-10T21:30:22.659Z,99.90
2017-12-10T21:32:51.611Z,99.90
2017-12-10T21:35:19.075Z,99.90
2017-12-10T21:37:46.579Z,99.90
2017-12-10T21:40:14.057Z,99.90
2017-12-10T21:42:41.508Z,99.90
2017-12-10T21:45:09.723Z,99.90
2017-12-10T21:47:37.195Z,99.90
2017-12-10T21:50:04.659Z,99.90
2017-12-10T21:52:32.214Z,99.90
2017-12-10T21:54:59.771Z,99.90
2017-12-10T21:57:27.330Z,99.90
2017-12-10T21:59:54.798Z,99.90
2017-12-10T22:02:23.768Z,99.90
2017-12-10T22:04:51.235Z,99.90
2017-12-10T22:07:19.502Z,99.90
2017-12-10T22:09:46.963Z,99.90
2017-12-10T22:12:14.411Z,99.90
2017-12-10T22:14:41.879Z,99.90
2017-12-10T22:17:10.092Z,99.90
2017-12-10T22:19:37.563Z,99.90
2017-12-10T22:22:05.059Z,99.90
2017-12-10T22:24:34.014Z,99.90
2017-12-10T22:27:01.476Z,99.90
2017-12-10T22:29:28.923Z,99.90
2017-12-10T22:31:56.479Z,99.90
2017-12-10T22:34:23.955Z,99.90
2017-12-10T22:36:51.402Z,99.90
2017-12-10T22:39:18.847Z,99.90
2017-12-10T22:41:46.360Z,99.90
2017-12-10T22:44:14.570Z,99.90
2017-12-10T22:46:42.070Z,99.90
2017-12-10T22:49:11.027Z,99.90
2017-12-10T22:51:38.483Z,99.90
2017-12-10T22:54:06.080Z,99.90
2017-12-10T22:56:33.634Z,99.90
2017-12-10T22:59:02.635Z,99.90
2017-12-10T23:01:30.188Z,99.90
2017-12-10T23:03:58.399Z,99.90
2017-12-10T23:06:26.339Z,99.90
2017-12-10T23:08:53.878Z,99.90
2017-12-10T23:11:21.335Z,99.90
2017-12-10T23:14:00.608Z,99.90
2017-12-10T23:16:30.540Z,99.90
2017-12-10T23:18:58.007Z,99.90
2017-12-10T23:21:25.466Z,99.90
2017-12-10T23:23:52.911Z,99.90
2017-12-10T23:26:20.408Z,99.90
2017-12-10T23:28:49.400Z,99.90
2017-12-10T23:31:16.851Z,99.90
2017-12-10T23:33:44.318Z,99.90
2017-12-10T23:36:12.591Z,99.90
2017-12-10T23:38:40.045Z,99.90
2017-12-10T23:41:07.606Z,99.90
2017-12-10T23:43:35.056Z,99.90
2017-12-10T23:46:03.329Z,99.90
2017-12-10T23:48:30.882Z,99.90
2017-12-10T23:50:58.434Z,99.90
2017-12-10T23:53:25.890Z,99.90
2017-12-10T23:55:53.339Z,99.90
2017-12-10T23:58:20.816Z,99.90
